sensor_id;sensor_type;location;lat;lon;timestamp;temperature;humidity
32706;DHT22;19094;50.972;3.538;2022-12-07T00:01:16;11.70;66.10
32706;DHT22;19094;50.972;3.538;2022-12-07T00:03:43;11.70;65.90
32706;DHT22;19094;50.972;3.538;2022-12-07T00:06:11;11.70;65.90
32706;DHT22;19094;50.972;3.538;2022-12-07T00:08:37;11.70;66.00
32706;DHT22;19094;50.972;3.538;2022-12-07T00:11:04;11.70;65.90
32706;DHT22;19094;50.972;3.538;2022-12-07T00:13:32;11.80;65.70
32706;DHT22;19094;50.972;3.538;2022-12-07T00:16:07;11.80;65.60
32706;DHT22;19094;50.972;3.538;2022-12-07T00:18:33;11.80;65.60
32706;DHT22;19094;50.972;3.538;2022-12-07T00:21:00;11.80;65.60
32706;DHT22;19094;50.972;3.538;2022-12-07T00:23:26;11.80;65.60
32706;DHT22;19094;50.972;3.538;2022-12-07T00:25:52;11.80;65.50
32706;DHT22;19094;50.972;3.538;2022-12-07T00:28:17;11.80;65.70
32706;DHT22;19094;50.972;3.538;2022-12-07T00:30:43;11.80;65.50
32706;DHT22;19094;50.972;3.538;2022-12-07T00:33:08;11.80;65.50
32706;DHT22;19094;50.972;3.538;2022-12-07T00:35:34;11.70;65.40
32706;DHT22;19094;50.972;3.538;2022-12-07T00:38:00;11.70;65.40
32706;DHT22;19094;50.972;3.538;2022-12-07T00:40:25;11.70;65.30
32706;DHT22;19094;50.972;3.538;2022-12-07T00:42:51;11.80;65.40
32706;DHT22;19094;50.972;3.538;2022-12-07T00:45:17;11.70;65.40
32706;DHT22;19094;50.972;3.538;2022-12-07T00:47:43;11.70;65.60
32706;DHT22;19094;50.972;3.538;2022-12-07T00:50:08;11.70;65.60
32706;DHT22;19094;50.972;3.538;2022-12-07T00:52:34;11.70;65.60
32706;DHT22;19094;50.972;3.538;2022-12-07T00:55:00;11.70;65.70
32706;DHT22;19094;50.972;3.538;2022-12-07T00:57:25;11.70;65.70
32706;DHT22;19094;50.972;3.538;2022-12-07T00:59:51;11.70;65.50
32706;DHT22;19094;50.972;3.538;2022-12-07T01:02:21;11.60;65.50
32706;DHT22;19094;50.972;3.538;2022-12-07T01:04:46;11.70;65.60
32706;DHT22;19094;50.972;3.538;2022-12-07T01:07:12;11.60;65.50
32706;DHT22;19094;50.972;3.538;2022-12-07T01:09:38;11.60;65.50
32706;DHT22;19094;50.972;3.538;2022-12-07T01:12:04;11.60;65.50
32706;DHT22;19094;50.972;3.538;2022-12-07T01:14:29;11.60;65.50
32706;DHT22;19094;50.972;3.538;2022-12-07T01:16:55;11.60;65.50
32706;DHT22;19094;50.972;3.538;2022-12-07T01:19:21;11.60;65.50
32706;DHT22;19094;50.972;3.538;2022-12-07T01:21:46;11.60;65.40
32706;DHT22;19094;50.972;3.538;2022-12-07T01:24:12;11.50;65.60
32706;DHT22;19094;50.972;3.538;2022-12-07T01:26:38;11.50;65.60
32706;DHT22;19094;50.972;3.538;2022-12-07T01:29:04;11.50;65.90
32706;DHT22;19094;50.972;3.538;2022-12-07T01:31:30;11.50;66.00
32706;DHT22;19094;50.972;3.538;2022-12-07T01:33:57;11.50;66.00
32706;DHT22;19094;50.972;3.538;2022-12-07T01:36:29;11.50;66.00
32706;DHT22;19094;50.972;3.538;2022-12-07T01:39:00;11.50;65.90
32706;DHT22;19094;50.972;3.538;2022-12-07T01:41:28;11.50;65.80
32706;DHT22;19094;50.972;3.538;2022-12-07T01:44:31;11.40;65.90
32706;DHT22;19094;50.972;3.538;2022-12-07T01:47:03;11.40;66.00
32706;DHT22;19094;50.972;3.538;2022-12-07T01:49:36;11.40;66.30
32706;DHT22;19094;50.972;3.538;2022-12-07T01:52:28;11.50;66.30
32706;DHT22;19094;50.972;3.538;2022-12-07T01:54:59;11.50;66.20
32706;DHT22;19094;50.972;3.538;2022-12-07T01:57:25;11.40;66.10
32706;DHT22;19094;50.972;3.538;2022-12-07T01:59:52;11.40;66.30
32706;DHT22;19094;50.972;3.538;2022-12-07T02:02:31;11.50;66.20
32706;DHT22;19094;50.972;3.538;2022-12-07T02:04:59;11.50;66.80
32706;DHT22;19094;50.972;3.538;2022-12-07T02:07:25;11.50;66.20
32706;DHT22;19094;50.972;3.538;2022-12-07T02:09:52;11.50;66.20
32706;DHT22;19094;50.972;3.538;2022-12-07T02:12:18;11.50;66.20
32706;DHT22;19094;50.972;3.538;2022-12-07T02:14:44;11.40;66.30
32706;DHT22;19094;50.972;3.538;2022-12-07T02:17:19;11.40;66.50
32706;DHT22;19094;50.972;3.538;2022-12-07T02:20:21;11.50;66.20
32706;DHT22;19094;50.972;3.538;2022-12-07T02:28:51;11.40;66.00
32706;DHT22;19094;50.972;3.538;2022-12-07T02:31:20;11.50;65.90
32706;DHT22;19094;50.972;3.538;2022-12-07T02:34:03;11.40;65.90
32706;DHT22;19094;50.972;3.538;2022-12-07T02:36:36;11.50;66.80
32706;DHT22;19094;50.972;3.538;2022-12-07T02:39:20;11.50;65.80
32706;DHT22;19094;50.972;3.538;2022-12-07T02:42:02;11.40;65.80
32706;DHT22;19094;50.972;3.538;2022-12-07T02:44:31;11.40;66.00
32706;DHT22;19094;50.972;3.538;2022-12-07T02:47:07;11.40;66.10
32706;DHT22;19094;50.972;3.538;2022-12-07T02:49:36;11.30;66.10
32706;DHT22;19094;50.972;3.538;2022-12-07T02:52:02;11.40;66.00
32706;DHT22;19094;50.972;3.538;2022-12-07T02:54:28;11.40;66.10
32706;DHT22;19094;50.972;3.538;2022-12-07T02:57:12;11.40;66.30
32706;DHT22;19094;50.972;3.538;2022-12-07T03:02:36;11.40;66.20
32706;DHT22;19094;50.972;3.538;2022-12-07T03:05:36;11.40;66.00
32706;DHT22;19094;50.972;3.538;2022-12-07T03:08:51;11.40;65.90
32706;DHT22;19094;50.972;3.538;2022-12-07T03:11:03;11.30;66.30
32706;DHT22;19094;50.972;3.538;2022-12-07T03:18:26;11.40;66.30
32706;DHT22;19094;50.972;3.538;2022-12-07T03:20:56;11.40;66.10
32706;DHT22;19094;50.972;3.538;2022-12-07T03:23:23;11.40;67.00
32706;DHT22;19094;50.972;3.538;2022-12-07T03:25:53;11.40;66.20
32706;DHT22;19094;50.972;3.538;2022-12-07T03:28:23;11.40;66.20
32706;DHT22;19094;50.972;3.538;2022-12-07T03:31:00;11.40;66.00
32706;DHT22;19094;50.972;3.538;2022-12-07T03:33:36;11.40;65.90
32706;DHT22;19094;50.972;3.538;2022-12-07T03:36:05;11.40;66.20
32706;DHT22;19094;50.972;3.538;2022-12-07T03:38:47;11.30;66.10
32706;DHT22;19094;50.972;3.538;2022-12-07T03:41:19;11.30;66.10
32706;DHT22;19094;50.972;3.538;2022-12-07T03:43:46;11.40;66.00
32706;DHT22;19094;50.972;3.538;2022-12-07T03:46:49;11.40;66.00
32706;DHT22;19094;50.972;3.538;2022-12-07T03:51:45;11.40;66.20
32706;DHT22;19094;50.972;3.538;2022-12-07T03:55:00;11.40;66.00
32706;DHT22;19094;50.972;3.538;2022-12-07T03:57:27;11.30;65.90
32706;DHT22;19094;50.972;3.538;2022-12-07T03:59:55;11.30;66.00
32706;DHT22;19094;50.972;3.538;2022-12-07T04:02:23;11.40;66.00
32706;DHT22;19094;50.972;3.538;2022-12-07T04:04:49;11.40;65.80
32706;DHT22;19094;50.972;3.538;2022-12-07T04:07:15;11.30;66.00
32706;DHT22;19094;50.972;3.538;2022-12-07T04:09:41;11.30;66.20
32706;DHT22;19094;50.972;3.538;2022-12-07T04:12:07;11.30;66.30
32706;DHT22;19094;50.972;3.538;2022-12-07T04:14:33;11.30;66.30
32706;DHT22;19094;50.972;3.538;2022-12-07T04:16:59;11.30;66.30
32706;DHT22;19094;50.972;3.538;2022-12-07T04:19:27;11.20;66.40
32706;DHT22;19094;50.972;3.538;2022-12-07T04:21:54;11.30;66.40
32706;DHT22;19094;50.972;3.538;2022-12-07T04:24:20;11.30;66.20
32706;DHT22;19094;50.972;3.538;2022-12-07T04:26:46;11.30;66.20
32706;DHT22;19094;50.972;3.538;2022-12-07T04:29:12;11.30;66.00
32706;DHT22;19094;50.972;3.538;2022-12-07T04:31:38;11.30;65.90
32706;DHT22;19094;50.972;3.538;2022-12-07T04:34:04;11.30;65.70
32706;DHT22;19094;50.972;3.538;2022-12-07T04:36:31;11.40;65.90
32706;DHT22;19094;50.972;3.538;2022-12-07T04:38:57;11.40;65.60
32706;DHT22;19094;50.972;3.538;2022-12-07T04:41:24;11.30;65.90
32706;DHT22;19094;50.972;3.538;2022-12-07T04:44:03;11.40;66.00
32706;DHT22;19094;50.972;3.538;2022-12-07T04:46:32;11.30;65.80
32706;DHT22;19094;50.972;3.538;2022-12-07T04:48:59;11.30;66.00
32706;DHT22;19094;50.972;3.538;2022-12-07T04:51:27;11.30;66.10
32706;DHT22;19094;50.972;3.538;2022-12-07T04:53:54;11.30;66.00
32706;DHT22;19094;50.972;3.538;2022-12-07T04:56:20;11.30;66.20
32706;DHT22;19094;50.972;3.538;2022-12-07T04:58:47;11.30;66.20
32706;DHT22;19094;50.972;3.538;2022-12-07T05:01:15;11.40;66.00
32706;DHT22;19094;50.972;3.538;2022-12-07T05:03:42;11.30;65.70
32706;DHT22;19094;50.972;3.538;2022-12-07T05:06:09;11.30;65.80
32706;DHT22;19094;50.972;3.538;2022-12-07T05:08:35;11.30;65.90
32706;DHT22;19094;50.972;3.538;2022-12-07T05:11:02;11.30;65.90
32706;DHT22;19094;50.972;3.538;2022-12-07T05:13:27;11.30;66.10
32706;DHT22;19094;50.972;3.538;2022-12-07T05:15:53;11.30;66.00
32706;DHT22;19094;50.972;3.538;2022-12-07T05:18:19;11.30;66.00
32706;DHT22;19094;50.972;3.538;2022-12-07T05:20:45;11.30;65.80
32706;DHT22;19094;50.972;3.538;2022-12-07T05:23:11;11.30;65.90
32706;DHT22;19094;50.972;3.538;2022-12-07T05:25:37;11.30;65.80
32706;DHT22;19094;50.972;3.538;2022-12-07T05:28:03;11.30;65.90
32706;DHT22;19094;50.972;3.538;2022-12-07T05:30:29;11.30;65.80
32706;DHT22;19094;50.972;3.538;2022-12-07T05:32:55;11.30;65.80
32706;DHT22;19094;50.972;3.538;2022-12-07T05:35:21;11.30;66.20
32706;DHT22;19094;50.972;3.538;2022-12-07T05:37:46;11.30;65.80
32706;DHT22;19094;50.972;3.538;2022-12-07T05:40:13;11.30;65.90
32706;DHT22;19094;50.972;3.538;2022-12-07T05:42:40;11.30;65.90
32706;DHT22;19094;50.972;3.538;2022-12-07T05:45:06;11.30;65.90
32706;DHT22;19094;50.972;3.538;2022-12-07T05:47:32;11.30;66.40
32706;DHT22;19094;50.972;3.538;2022-12-07T05:49:58;11.30;65.70
32706;DHT22;19094;50.972;3.538;2022-12-07T05:52:24;11.30;65.70
32706;DHT22;19094;50.972;3.538;2022-12-07T05:54:50;11.40;65.80
32706;DHT22;19094;50.972;3.538;2022-12-07T05:57:15;11.40;65.70
32706;DHT22;19094;50.972;3.538;2022-12-07T05:59:41;11.30;65.60
32706;DHT22;19094;50.972;3.538;2022-12-07T06:02:10;11.20;65.80
32706;DHT22;19094;50.972;3.538;2022-12-07T06:04:39;11.30;65.80
32706;DHT22;19094;50.972;3.538;2022-12-07T06:07:06;11.30;65.70
32706;DHT22;19094;50.972;3.538;2022-12-07T06:09:32;11.30;65.90
32706;DHT22;19094;50.972;3.538;2022-12-07T06:11:58;11.30;66.00
32706;DHT22;19094;50.972;3.538;2022-12-07T06:14:43;11.20;65.90
32706;DHT22;19094;50.972;3.538;2022-12-07T06:17:09;11.20;65.90
32706;DHT22;19094;50.972;3.538;2022-12-07T06:19:35;11.20;66.00
32706;DHT22;19094;50.972;3.538;2022-12-07T06:22:01;11.30;66.00
32706;DHT22;19094;50.972;3.538;2022-12-07T06:24:28;11.30;65.70
32706;DHT22;19094;50.972;3.538;2022-12-07T06:26:53;11.40;65.50
32706;DHT22;19094;50.972;3.538;2022-12-07T06:29:19;11.40;65.40
32706;DHT22;19094;50.972;3.538;2022-12-07T06:31:45;11.40;65.60
32706;DHT22;19094;50.972;3.538;2022-12-07T06:34:14;11.40;65.50
32706;DHT22;19094;50.972;3.538;2022-12-07T06:36:40;11.40;65.40
32706;DHT22;19094;50.972;3.538;2022-12-07T06:39:06;11.40;65.30
32706;DHT22;19094;50.972;3.538;2022-12-07T06:41:37;11.40;65.30
32706;DHT22;19094;50.972;3.538;2022-12-07T06:44:04;11.30;65.30
32706;DHT22;19094;50.972;3.538;2022-12-07T06:46:30;11.40;65.50
32706;DHT22;19094;50.972;3.538;2022-12-07T06:48:56;11.30;65.50
32706;DHT22;19094;50.972;3.538;2022-12-07T06:51:22;11.20;65.80
32706;DHT22;19094;50.972;3.538;2022-12-07T06:53:47;11.20;66.20
32706;DHT22;19094;50.972;3.538;2022-12-07T06:56:13;11.20;66.40
32706;DHT22;19094;50.972;3.538;2022-12-07T06:58:39;11.20;66.30
32706;DHT22;19094;50.972;3.538;2022-12-07T07:01:12;11.20;66.30
32706;DHT22;19094;50.972;3.538;2022-12-07T07:03:38;11.20;66.30
32706;DHT22;19094;50.972;3.538;2022-12-07T07:06:05;11.30;66.20
32706;DHT22;19094;50.972;3.538;2022-12-07T07:08:30;11.30;66.20
32706;DHT22;19094;50.972;3.538;2022-12-07T07:10:56;11.30;66.00
32706;DHT22;19094;50.972;3.538;2022-12-07T07:13:22;11.30;65.90
32706;DHT22;19094;50.972;3.538;2022-12-07T07:15:48;11.40;65.90
32706;DHT22;19094;50.972;3.538;2022-12-07T07:18:13;11.30;65.70
32706;DHT22;19094;50.972;3.538;2022-12-07T07:20:39;11.40;65.80
32706;DHT22;19094;50.972;3.538;2022-12-07T07:23:05;11.40;65.80
32706;DHT22;19094;50.972;3.538;2022-12-07T07:25:31;11.40;65.70
32706;DHT22;19094;50.972;3.538;2022-12-07T07:27:57;11.40;65.60
32706;DHT22;19094;50.972;3.538;2022-12-07T07:30:23;11.30;65.60
32706;DHT22;19094;50.972;3.538;2022-12-07T07:32:49;11.30;65.80
32706;DHT22;19094;50.972;3.538;2022-12-07T07:35:15;11.20;66.00
32706;DHT22;19094;50.972;3.538;2022-12-07T07:37:41;11.30;65.90
32706;DHT22;19094;50.972;3.538;2022-12-07T07:40:08;11.30;65.90
32706;DHT22;19094;50.972;3.538;2022-12-07T07:42:34;11.30;65.90
32706;DHT22;19094;50.972;3.538;2022-12-07T07:45:00;11.30;65.90
32706;DHT22;19094;50.972;3.538;2022-12-07T07:47:25;11.20;66.20
32706;DHT22;19094;50.972;3.538;2022-12-07T07:49:51;11.20;66.00
32706;DHT22;19094;50.972;3.538;2022-12-07T07:52:17;11.20;66.10
32706;DHT22;19094;50.972;3.538;2022-12-07T07:54:42;11.20;66.20
32706;DHT22;19094;50.972;3.538;2022-12-07T07:57:08;11.20;66.90
32706;DHT22;19094;50.972;3.538;2022-12-07T07:59:33;11.20;66.20
32706;DHT22;19094;50.972;3.538;2022-12-07T08:01:59;11.20;66.20
32706;DHT22;19094;50.972;3.538;2022-12-07T08:04:25;11.10;66.40
32706;DHT22;19094;50.972;3.538;2022-12-07T08:06:51;11.20;66.30
32706;DHT22;19094;50.972;3.538;2022-12-07T08:09:17;11.20;66.20
32706;DHT22;19094;50.972;3.538;2022-12-07T08:11:42;11.20;66.10
32706;DHT22;19094;50.972;3.538;2022-12-07T08:14:10;11.20;66.20
32706;DHT22;19094;50.972;3.538;2022-12-07T08:16:37;11.20;66.20
32706;DHT22;19094;50.972;3.538;2022-12-07T08:19:04;11.20;66.30
32706;DHT22;19094;50.972;3.538;2022-12-07T08:21:31;11.20;66.20
32706;DHT22;19094;50.972;3.538;2022-12-07T08:23:57;11.30;66.30
32706;DHT22;19094;50.972;3.538;2022-12-07T08:26:23;11.20;66.20
32706;DHT22;19094;50.972;3.538;2022-12-07T08:28:49;11.30;66.20
32706;DHT22;19094;50.972;3.538;2022-12-07T08:31:17;11.20;66.20
32706;DHT22;19094;50.972;3.538;2022-12-07T08:33:48;11.20;66.20
32706;DHT22;19094;50.972;3.538;2022-12-07T08:36:14;11.20;66.40
32706;DHT22;19094;50.972;3.538;2022-12-07T08:38:41;11.20;66.40
32706;DHT22;19094;50.972;3.538;2022-12-07T08:41:07;11.20;66.40
32706;DHT22;19094;50.972;3.538;2022-12-07T08:43:34;11.20;66.50
32706;DHT22;19094;50.972;3.538;2022-12-07T08:46:25;11.20;66.50
32706;DHT22;19094;50.972;3.538;2022-12-07T08:49:12;11.20;66.50
32706;DHT22;19094;50.972;3.538;2022-12-07T08:51:40;11.20;66.60
32706;DHT22;19094;50.972;3.538;2022-12-07T08:54:10;11.20;66.70
32706;DHT22;19094;50.972;3.538;2022-12-07T08:56:37;11.20;66.70
32706;DHT22;19094;50.972;3.538;2022-12-07T08:59:04;11.20;66.60
32706;DHT22;19094;50.972;3.538;2022-12-07T09:01:30;11.20;66.60
32706;DHT22;19094;50.972;3.538;2022-12-07T09:03:55;11.30;66.60
32706;DHT22;19094;50.972;3.538;2022-12-07T09:06:21;11.30;66.40
32706;DHT22;19094;50.972;3.538;2022-12-07T09:08:51;11.30;66.50
32706;DHT22;19094;50.972;3.538;2022-12-07T09:11:17;11.30;66.40
32706;DHT22;19094;50.972;3.538;2022-12-07T09:13:43;11.40;66.20
32706;DHT22;19094;50.972;3.538;2022-12-07T09:16:09;11.40;66.10
32706;DHT22;19094;50.972;3.538;2022-12-07T09:18:34;11.40;66.10
32706;DHT22;19094;50.972;3.538;2022-12-07T09:21:00;11.40;66.40
32706;DHT22;19094;50.972;3.538;2022-12-07T09:23:26;11.30;66.50
32706;DHT22;19094;50.972;3.538;2022-12-07T09:25:51;11.30;66.40
32706;DHT22;19094;50.972;3.538;2022-12-07T09:28:17;11.30;66.40
32706;DHT22;19094;50.972;3.538;2022-12-07T09:30:47;11.30;66.50
32706;DHT22;19094;50.972;3.538;2022-12-07T09:33:13;11.30;66.40
32706;DHT22;19094;50.972;3.538;2022-12-07T09:35:47;11.30;66.50
32706;DHT22;19094;50.972;3.538;2022-12-07T09:38:13;11.30;66.50
32706;DHT22;19094;50.972;3.538;2022-12-07T09:40:40;11.40;67.30
32706;DHT22;19094;50.972;3.538;2022-12-07T09:43:12;11.40;66.30
32706;DHT22;19094;50.972;3.538;2022-12-07T09:45:39;11.40;66.40
32706;DHT22;19094;50.972;3.538;2022-12-07T09:48:05;11.40;66.40
32706;DHT22;19094;50.972;3.538;2022-12-07T09:50:31;11.40;66.50
32706;DHT22;19094;50.972;3.538;2022-12-07T09:53:36;11.40;66.50
32706;DHT22;19094;50.972;3.538;2022-12-07T09:56:02;11.40;66.40
32706;DHT22;19094;50.972;3.538;2022-12-07T09:58:29;11.50;66.30
32706;DHT22;19094;50.972;3.538;2022-12-07T10:01:19;11.50;66.20
32706;DHT22;19094;50.972;3.538;2022-12-07T10:03:53;11.60;66.00
32706;DHT22;19094;50.972;3.538;2022-12-07T10:06:19;11.70;66.00
32706;DHT22;19094;50.972;3.538;2022-12-07T10:08:45;11.60;66.00
32706;DHT22;19094;50.972;3.538;2022-12-07T10:11:11;11.60;66.10
32706;DHT22;19094;50.972;3.538;2022-12-07T10:13:40;11.70;66.20
32706;DHT22;19094;50.972;3.538;2022-12-07T10:16:32;11.70;66.10
32706;DHT22;19094;50.972;3.538;2022-12-07T10:18:53;11.60;66.10
32706;DHT22;19094;50.972;3.538;2022-12-07T10:21:26;11.70;66.40
32706;DHT22;19094;50.972;3.538;2022-12-07T10:24:04;11.70;66.30
32706;DHT22;19094;50.972;3.538;2022-12-07T10:26:40;11.70;66.40
32706;DHT22;19094;50.972;3.538;2022-12-07T10:29:19;11.70;66.40
32706;DHT22;19094;50.972;3.538;2022-12-07T10:31:48;11.60;66.60
32706;DHT22;19094;50.972;3.538;2022-12-07T10:34:30;11.60;66.50
32706;DHT22;19094;50.972;3.538;2022-12-07T10:37:26;11.70;66.30
32706;DHT22;19094;50.972;3.538;2022-12-07T10:39:57;11.70;66.40
32706;DHT22;19094;50.972;3.538;2022-12-07T10:42:30;11.70;66.40
32706;DHT22;19094;50.972;3.538;2022-12-07T11:01:55;11.70;66.70
32706;DHT22;19094;50.972;3.538;2022-12-07T11:07:13;11.60;66.70
32706;DHT22;19094;50.972;3.538;2022-12-07T11:12:45;11.70;66.60
32706;DHT22;19094;50.972;3.538;2022-12-07T11:15:48;11.60;66.60
32706;DHT22;19094;50.972;3.538;2022-12-07T11:18:42;11.70;66.70
32706;DHT22;19094;50.972;3.538;2022-12-07T11:21:26;11.70;66.80
32706;DHT22;19094;50.972;3.538;2022-12-07T11:24:10;11.60;66.90
32706;DHT22;19094;50.972;3.538;2022-12-07T11:27:27;11.60;66.80
32706;DHT22;19094;50.972;3.538;2022-12-07T11:30:16;11.70;66.70
32706;DHT22;19094;50.972;3.538;2022-12-07T11:38:23;11.80;66.70
32706;DHT22;19094;50.972;3.538;2022-12-07T11:40:55;11.80;66.60
32706;DHT22;19094;50.972;3.538;2022-12-07T11:43:27;11.80;66.50
32706;DHT22;19094;50.972;3.538;2022-12-07T11:46:04;11.80;66.50
32706;DHT22;19094;50.972;3.538;2022-12-07T11:48:47;11.80;66.30
32706;DHT22;19094;50.972;3.538;2022-12-07T11:51:18;11.90;66.10
32706;DHT22;19094;50.972;3.538;2022-12-07T11:53:59;11.90;66.00
32706;DHT22;19094;50.972;3.538;2022-12-07T11:56:28;11.90;65.90
32706;DHT22;19094;50.972;3.538;2022-12-07T11:59:03;12.00;65.70
32706;DHT22;19094;50.972;3.538;2022-12-07T12:01:52;12.00;65.80
32706;DHT22;19094;50.972;3.538;2022-12-07T12:04:47;12.10;65.70
32706;DHT22;19094;50.972;3.538;2022-12-07T12:07:19;12.10;65.50
32706;DHT22;19094;50.972;3.538;2022-12-07T12:09:59;12.00;65.80
32706;DHT22;19094;50.972;3.538;2022-12-07T12:20:41;12.10;65.70
32706;DHT22;19094;50.972;3.538;2022-12-07T12:23:19;12.10;66.00
32706;DHT22;19094;50.972;3.538;2022-12-07T12:25:49;12.00;65.90
32706;DHT22;19094;50.972;3.538;2022-12-07T12:28:49;12.00;66.00
32706;DHT22;19094;50.972;3.538;2022-12-07T12:33:53;11.90;66.10
32706;DHT22;19094;50.972;3.538;2022-12-07T12:54:40;11.80;66.50
32706;DHT22;19094;50.972;3.538;2022-12-07T12:57:27;11.80;66.50
32706;DHT22;19094;50.972;3.538;2022-12-07T13:20:58;11.90;65.90
32706;DHT22;19094;50.972;3.538;2022-12-07T13:28:41;12.10;65.80
32706;DHT22;19094;50.972;3.538;2022-12-07T13:33:38;12.30;64.90
32706;DHT22;19094;50.972;3.538;2022-12-07T13:36:04;12.40;64.80
32706;DHT22;19094;50.972;3.538;2022-12-07T13:38:37;12.40;64.50
32706;DHT22;19094;50.972;3.538;2022-12-07T13:44:08;12.30;64.60
32706;DHT22;19094;50.972;3.538;2022-12-07T13:49:36;12.30;64.40
32706;DHT22;19094;50.972;3.538;2022-12-07T13:52:19;12.30;64.70
32706;DHT22;19094;50.972;3.538;2022-12-07T13:54:59;12.30;64.80
32706;DHT22;19094;50.972;3.538;2022-12-07T13:57:28;12.30;64.90
32706;DHT22;19094;50.972;3.538;2022-12-07T13:59:54;12.20;64.80
32706;DHT22;19094;50.972;3.538;2022-12-07T14:02:24;12.20;65.00
32706;DHT22;19094;50.972;3.538;2022-12-07T14:04:51;12.20;64.90
32706;DHT22;19094;50.972;3.538;2022-12-07T14:07:27;12.20;65.00
32706;DHT22;19094;50.972;3.538;2022-12-07T14:10:22;12.10;65.00
32706;DHT22;19094;50.972;3.538;2022-12-07T14:12:48;12.20;65.00
32706;DHT22;19094;50.972;3.538;2022-12-07T14:15:34;12.20;64.90
32706;DHT22;19094;50.972;3.538;2022-12-07T14:18:01;12.20;64.60
32706;DHT22;19094;50.972;3.538;2022-12-07T14:20:40;12.30;64.70
32706;DHT22;19094;50.972;3.538;2022-12-07T14:23:27;12.20;64.50
32706;DHT22;19094;50.972;3.538;2022-12-07T14:25:53;12.20;64.90
32706;DHT22;19094;50.972;3.538;2022-12-07T14:28:28;12.20;64.90
32706;DHT22;19094;50.972;3.538;2022-12-07T14:30:54;12.20;64.70
32706;DHT22;19094;50.972;3.538;2022-12-07T14:33:20;12.20;65.50
32706;DHT22;19094;50.972;3.538;2022-12-07T14:35:46;12.10;64.60
32706;DHT22;19094;50.972;3.538;2022-12-07T14:38:12;12.10;64.90
32706;DHT22;19094;50.972;3.538;2022-12-07T14:40:38;12.10;65.00
32706;DHT22;19094;50.972;3.538;2022-12-07T14:43:15;12.10;65.00
32706;DHT22;19094;50.972;3.538;2022-12-07T14:45:41;12.00;65.00
32706;DHT22;19094;50.972;3.538;2022-12-07T14:48:15;12.00;65.30
32706;DHT22;19094;50.972;3.538;2022-12-07T14:50:43;12.00;65.10
32706;DHT22;19094;50.972;3.538;2022-12-07T14:53:15;12.00;65.20
32706;DHT22;19094;50.972;3.538;2022-12-07T14:55:42;12.00;65.20
32706;DHT22;19094;50.972;3.538;2022-12-07T14:58:15;12.00;65.20
32706;DHT22;19094;50.972;3.538;2022-12-07T15:00:42;12.00;65.20
32706;DHT22;19094;50.972;3.538;2022-12-07T15:03:07;12.00;65.20
32706;DHT22;19094;50.972;3.538;2022-12-07T15:05:34;12.00;66.20
32706;DHT22;19094;50.972;3.538;2022-12-07T15:08:00;11.90;65.40
32706;DHT22;19094;50.972;3.538;2022-12-07T15:10:29;12.00;65.50
32706;DHT22;19094;50.972;3.538;2022-12-07T15:12:57;12.00;65.40
32706;DHT22;19094;50.972;3.538;2022-12-07T15:15:50;12.00;65.30
32706;DHT22;19094;50.972;3.538;2022-12-07T15:18:17;12.00;65.10
32706;DHT22;19094;50.972;3.538;2022-12-07T15:20:43;11.90;65.30
32706;DHT22;19094;50.972;3.538;2022-12-07T15:23:10;11.90;65.40
32706;DHT22;19094;50.972;3.538;2022-12-07T15:25:36;11.90;65.20
32706;DHT22;19094;50.972;3.538;2022-12-07T15:28:02;11.90;65.40
32706;DHT22;19094;50.972;3.538;2022-12-07T15:30:28;11.90;65.50
32706;DHT22;19094;50.972;3.538;2022-12-07T15:32:54;11.90;65.30
32706;DHT22;19094;50.972;3.538;2022-12-07T15:35:20;11.80;65.50
32706;DHT22;19094;50.972;3.538;2022-12-07T15:37:46;11.80;65.70
32706;DHT22;19094;50.972;3.538;2022-12-07T15:40:12;11.90;65.50
32706;DHT22;19094;50.972;3.538;2022-12-07T15:42:39;11.90;65.40
32706;DHT22;19094;50.972;3.538;2022-12-07T15:45:06;11.90;66.10
32706;DHT22;19094;50.972;3.538;2022-12-07T15:47:38;11.80;65.40
32706;DHT22;19094;50.972;3.538;2022-12-07T15:50:06;11.80;65.40
32706;DHT22;19094;50.972;3.538;2022-12-07T15:52:32;11.80;65.60
32706;DHT22;19094;50.972;3.538;2022-12-07T15:54:58;11.80;65.40
32706;DHT22;19094;50.972;3.538;2022-12-07T15:57:26;11.80;65.50
32706;DHT22;19094;50.972;3.538;2022-12-07T15:59:52;11.80;65.30
32706;DHT22;19094;50.972;3.538;2022-12-07T16:02:18;11.80;65.30
32706;DHT22;19094;50.972;3.538;2022-12-07T16:04:44;11.80;65.40
32706;DHT22;19094;50.972;3.538;2022-12-07T16:07:10;11.80;66.20
32706;DHT22;19094;50.972;3.538;2022-12-07T16:09:37;11.80;65.50
32706;DHT22;19094;50.972;3.538;2022-12-07T16:12:03;11.80;65.30
32706;DHT22;19094;50.972;3.538;2022-12-07T16:14:29;11.80;65.50
32706;DHT22;19094;50.972;3.538;2022-12-07T16:16:57;11.80;65.60
32706;DHT22;19094;50.972;3.538;2022-12-07T16:19:23;11.80;65.50
32706;DHT22;19094;50.972;3.538;2022-12-07T16:21:49;11.80;65.40
32706;DHT22;19094;50.972;3.538;2022-12-07T16:24:14;11.80;65.50
32706;DHT22;19094;50.972;3.538;2022-12-07T16:26:40;11.80;65.60
32706;DHT22;19094;50.972;3.538;2022-12-07T16:29:06;11.80;65.70
32706;DHT22;19094;50.972;3.538;2022-12-07T16:31:32;11.70;65.70
32706;DHT22;19094;50.972;3.538;2022-12-07T16:33:58;11.80;65.80
32706;DHT22;19094;50.972;3.538;2022-12-07T16:36:25;11.70;65.80
32706;DHT22;19094;50.972;3.538;2022-12-07T16:38:52;11.80;65.80
32706;DHT22;19094;50.972;3.538;2022-12-07T16:41:18;11.80;65.70
32706;DHT22;19094;50.972;3.538;2022-12-07T16:43:44;11.80;65.60
32706;DHT22;19094;50.972;3.538;2022-12-07T16:46:10;11.80;65.60
32706;DHT22;19094;50.972;3.538;2022-12-07T16:48:37;11.80;65.50
32706;DHT22;19094;50.972;3.538;2022-12-07T16:51:04;11.80;65.60
32706;DHT22;19094;50.972;3.538;2022-12-07T16:53:30;11.70;65.40
32706;DHT22;19094;50.972;3.538;2022-12-07T16:55:56;11.80;65.70
32706;DHT22;19094;50.972;3.538;2022-12-07T16:58:22;11.70;65.60
32706;DHT22;19094;50.972;3.538;2022-12-07T17:00:47;11.70;65.50
32706;DHT22;19094;50.972;3.538;2022-12-07T17:03:14;11.70;65.60
32706;DHT22;19094;50.972;3.538;2022-12-07T17:05:41;11.70;65.60
32706;DHT22;19094;50.972;3.538;2022-12-07T17:08:08;11.70;65.60
32706;DHT22;19094;50.972;3.538;2022-12-07T17:10:36;11.70;65.50
32706;DHT22;19094;50.972;3.538;2022-12-07T17:13:04;11.70;65.60
32706;DHT22;19094;50.972;3.538;2022-12-07T17:16:00;11.80;66.30
32706;DHT22;19094;50.972;3.538;2022-12-07T17:18:28;11.60;65.80
32706;DHT22;19094;50.972;3.538;2022-12-07T17:20:54;11.60;65.90
32706;DHT22;19094;50.972;3.538;2022-12-07T17:23:20;11.60;66.00
32706;DHT22;19094;50.972;3.538;2022-12-07T17:25:47;11.60;66.00
32706;DHT22;19094;50.972;3.538;2022-12-07T17:28:12;11.60;66.00
32706;DHT22;19094;50.972;3.538;2022-12-07T17:30:39;11.60;66.00
32706;DHT22;19094;50.972;3.538;2022-12-07T17:33:04;11.50;65.90
32706;DHT22;19094;50.972;3.538;2022-12-07T17:35:30;11.50;66.00